Nationale Nord-Ouest Sainte-Brigitte Forêt de Quénécan (56) - H

Date : 10/06/2018
Distance : 2,820 km

Place Nom Licence Catégorie Club Temps min/km CN à J-60 Points Différence Nouveau CN
1 BOUSSER Etienne 1843 H70 5702GE 0:25:07 8'54 5843 6110 +267 5842
2 PREVOST Pascale 922 D60 7707IF 0:28:54 10'14 5280 5310 +30 5373
3 TAILLANDIER Guy 1583 H70 0801GE 0:29:10 10'20 5061 5262 +201 5205
4 DARTHIAIL Jean-Paul 3254 H70 3308NA 0:31:19 11'06 5017 4901 -116 4904
5 PETIT Guyonne 4372 D60 7808IF 0:35:38 12'38 3866 4307 +441 4131
6 CABON Herve 95 H70 2904BR 0:38:34 13'40 4674 3979 -695 4668
7 GRAND J-Pierre 1053 H70 1601NA 0:39:29 14'00 3710 3887 +177 3597
8 CONIEL Anne 14884 D45 5604BR 0:39:33 14'01 2631 3880 +1249 3580
9 HUMBERTCLAUDE J-Paul 16205 H70 5909HF 0:41:24 14'40 4497 3707 -790 4252
10 TESSIER Daniel 2006 H70 7709IF 0:41:48 14'49 3855 3671 -184 3877
11 SIMONET Jean 930 H75 7707IF 0:42:14 14'58 3932 3634 -298 3923
12 DUBROCA J-Michel 4507 H70 3308NA 0:44:05 15'37 3709 3481 -228 3719
13 ROBERT Martine 1087 D65 7004BF 0:45:30 16'08 3479 3373 -106 3532
14 DOMENICI J-Claude 1052 H75 1705NA 0:47:35 16'52 2975 3225 +250 3149
15 BOULANGER Isabelle 10639 D60 5907HF 0:48:34 17'13 3520 3160 -360 3454
16 LARMINACH Andre 646 H75 3308NA 0:49:22 17'30 3613 3109 -504 3428
17 JEQUEL Yann 3086 H70 4403PL 0:51:41 18'19 3506 2969 -537 3478
18 AGUILLE Veronique 9904 D65 1403NM 0:52:50 18'44 2737 2905 +168 2638
19 CAMPBELL Jane 17406 D60 7807IF 0:53:16 18'53 4281 2881 -1400 4241
20 DUBROCA Monique 633 D70 3308NA 0:53:23 18'55 4119 2875 -1244 4041
21 SOL Michel 933 H70 7707IF 0:53:45 19'03 4351 2855 -1496 4377
22 COLLETER J-Claude 1264 H75 8607NA 0:54:08 19'11 2726 2835 +109 2599
23 POGU Paulette 4671 D65 5402GE 0:55:06 19'32 2531 2785 +254 2506
24 BEHOTEGUY Bernard 1262 H70 6408NA 0:55:14 19'35 3145 2779 -366 3145
25 LEAU Philippe 14169 H75 5302PL 0:55:27 19'39 2456 2768 +312 2850
26 DIEUDONNE Madeleine 1380 D70 7808IF 0:56:53 20'10 3365 2698 -667 3543
27 LAMBERT Nadine 5607 D60 7203PL 0:58:19 20'40 2597 2632 +35 2636
28 COUPEY Guy 5118 H75 2704NM 0:59:56 21'15 2687 2561 -126 2682
29 GESRET Laetitia 13776 D40 9404IF 1:00:19 21'23 2947 2544 -403 3038
30 ROBERT Christian 1086 H70 7004BF 1:00:21 21'24 4231 2543 -1688 4000
31 BRET Dominique 5982 D60 7512IF 1:00:42 21'31 3274 2528 -746 2818
32 CABON Monique 96 D65 2904BR 1:01:17 21'43 2713 2504 -209 2799
33 SIAO Laurina 36233 D40 7512IF 1:02:23 22'07 1116 2460 +1344 1956
34 TESSIER Ariane 2004 D60 7709IF 1:04:01 22'42 2964 2397 -567 2902
35 FRANTZ Francoise 6886 D70 2904BR 1:04:58 23'02 3121 2362 -759 3259
36 BRUGNON Valerie 30065 D45 2904BR 1:09:49 24'45 3127 2198 -929 3127
37 BEN KHALED Isabelle 13761 D60 5909HF 1:10:00 24'49 1617 2192 +575 2224
38 DANELON Isabelle 13887 D45 2904BR 1:13:52 26'11 2568 2078 -490 2395
39 VASILOI Nadejda 36108 D40 7807IF 1:15:53 26'54 2022 2230
40 LAPERGUE Florence 30817 D45 3319NA 1:17:27 27'27 2618 1982 -636 2543
41 DELALANDE Joël 3262 H70 3506BR 1:17:37 27'31 3183 1977 -1206 2779
42 THEVENON Catherine 29294 D65 1705NA 1:18:47 27'56 2862 1948 -914 2785
43 DIEUDONNE Roland 1381 H70 7808IF 1:25:41 30'23 2358 1791 -567 2463
44 PIGER Ghislaine 117 D80 4504CE 1:29:01 31'33 1202 1724 +522 1745
45 LAUNEY Noella 11368 D75 7203PL 1:32:07 32'39 1714 1666 -48 1753
46 PIGER Albert 116 H80 4504CE 1:34:09 33'23 2100 1630 -470 2361
47 GUICHARDON Georges 570 H80 4504CE 1:42:45 36'26 804 1494 +690 1348
48 LUDEWIG-JAMES Carol 15894 D80 5907HF 1:44:05 36'54 1568 1474 -94 1636
49 CAU Martine 10313 D60 4504CE 1:46:38 37'48 1851 1439 -412 1917
GOURVIL Elisabeth 18473 D50 4709NA abandon None 2458 0 2315
DENIS Martine 12377 D70 9404IF abandon None 2408 0 2380
CHALOPIN Catherine 3674 D65 2105BF pm None 3691 0 4013
PAPILLON Françoise 2761 D60 2109BF pm None 2806 0 2875